sensor_id;sensor_type;location;lat;lon;timestamp;temperature;humidity
43320;DHT22;28914;48.722;9.332;2023-02-15T00:04:17;2.30;72.60
43320;DHT22;28914;48.722;9.332;2023-02-15T00:09:36;2.20;72.70
43320;DHT22;28914;48.722;9.332;2023-02-15T00:14:55;2.20;72.60
43320;DHT22;28914;48.722;9.332;2023-02-15T00:20:15;2.10;72.70
43320;DHT22;28914;48.722;9.332;2023-02-15T00:25:34;2.10;72.60
43320;DHT22;28914;48.722;9.332;2023-02-15T00:30:53;2.10;72.70
43320;DHT22;28914;48.722;9.332;2023-02-15T00:36:13;2.00;73.10
43320;DHT22;28914;48.722;9.332;2023-02-15T00:41:32;2.00;73.50
43320;DHT22;28914;48.722;9.332;2023-02-15T00:46:51;1.90;73.70
43320;DHT22;28914;48.722;9.332;2023-02-15T00:52:11;1.90;73.50
43320;DHT22;28914;48.722;9.332;2023-02-15T00:57:30;1.80;73.40
43320;DHT22;28914;48.722;9.332;2023-02-15T01:02:49;1.80;73.50
43320;DHT22;28914;48.722;9.332;2023-02-15T01:08:08;1.80;73.50
43320;DHT22;28914;48.722;9.332;2023-02-15T01:13:28;1.70;73.40
43320;DHT22;28914;48.722;9.332;2023-02-15T01:18:47;1.70;73.60
43320;DHT22;28914;48.722;9.332;2023-02-15T01:24:14;1.70;73.50
43320;DHT22;28914;48.722;9.332;2023-02-15T01:29:34;1.60;73.50
43320;DHT22;28914;48.722;9.332;2023-02-15T01:34:53;1.60;73.50
43320;DHT22;28914;48.722;9.332;2023-02-15T01:40:15;1.50;73.40
43320;DHT22;28914;48.722;9.332;2023-02-15T01:45:34;1.50;73.50
43320;DHT22;28914;48.722;9.332;2023-02-15T01:50:58;1.50;73.60
43320;DHT22;28914;48.722;9.332;2023-02-15T01:56:26;1.40;73.50
43320;DHT22;28914;48.722;9.332;2023-02-15T02:01:46;1.50;73.80
43320;DHT22;28914;48.722;9.332;2023-02-15T02:07:06;1.40;73.70
43320;DHT22;28914;48.722;9.332;2023-02-15T02:12:27;1.40;73.80
43320;DHT22;28914;48.722;9.332;2023-02-15T02:18:02;1.40;73.80
43320;DHT22;28914;48.722;9.332;2023-02-15T02:34:29;1.30;73.90
43320;DHT22;28914;48.722;9.332;2023-02-15T02:40:06;1.20;74.00
43320;DHT22;28914;48.722;9.332;2023-02-15T02:50:58;1.10;74.10
43320;DHT22;28914;48.722;9.332;2023-02-15T02:56:30;1.10;74.10
43320;DHT22;28914;48.722;9.332;2023-02-15T03:01:58;1.10;74.30
43320;DHT22;28914;48.722;9.332;2023-02-15T03:07:22;1.10;74.30
43320;DHT22;28914;48.722;9.332;2023-02-15T03:12:41;1.10;74.30
43320;DHT22;28914;48.722;9.332;2023-02-15T03:18:02;1.00;74.20
43320;DHT22;28914;48.722;9.332;2023-02-15T03:23:23;1.00;74.30
43320;DHT22;28914;48.722;9.332;2023-02-15T03:28:46;1.00;74.50
43320;DHT22;28914;48.722;9.332;2023-02-15T03:34:10;0.90;74.40
43320;DHT22;28914;48.722;9.332;2023-02-15T03:39:33;0.90;74.50
43320;DHT22;28914;48.722;9.332;2023-02-15T03:45:08;0.90;74.50
43320;DHT22;28914;48.722;9.332;2023-02-15T03:50:30;0.90;74.50
43320;DHT22;28914;48.722;9.332;2023-02-15T03:56:08;0.80;74.60
43320;DHT22;28914;48.722;9.332;2023-02-15T04:01:34;0.80;74.50
43320;DHT22;28914;48.722;9.332;2023-02-15T04:07:15;0.80;74.60
43320;DHT22;28914;48.722;9.332;2023-02-15T04:12:34;0.70;74.50
43320;DHT22;28914;48.722;9.332;2023-02-15T04:17:53;0.70;74.60
43320;DHT22;28914;48.722;9.332;2023-02-15T04:23:12;0.70;74.70
43320;DHT22;28914;48.722;9.332;2023-02-15T04:28:50;0.60;74.60
43320;DHT22;28914;48.722;9.332;2023-02-15T04:34:09;0.60;74.50
43320;DHT22;28914;48.722;9.332;2023-02-15T04:39:29;0.50;74.70
43320;DHT22;28914;48.722;9.332;2023-02-15T04:44:48;0.50;74.70
43320;DHT22;28914;48.722;9.332;2023-02-15T04:50:08;0.50;74.70
43320;DHT22;28914;48.722;9.332;2023-02-15T04:55:27;0.50;74.80
43320;DHT22;28914;48.722;9.332;2023-02-15T05:00:46;0.50;74.80
43320;DHT22;28914;48.722;9.332;2023-02-15T05:06:07;0.40;74.80
43320;DHT22;28914;48.722;9.332;2023-02-15T05:11:26;0.40;74.90
43320;DHT22;28914;48.722;9.332;2023-02-15T05:16:46;0.40;74.80
43320;DHT22;28914;48.722;9.332;2023-02-15T05:22:05;0.40;75.80
43320;DHT22;28914;48.722;9.332;2023-02-15T05:27:24;0.30;75.90
43320;DHT22;28914;48.722;9.332;2023-02-15T05:33:02;0.30;75.80
43320;DHT22;28914;48.722;9.332;2023-02-15T05:38:22;0.30;75.70
43320;DHT22;28914;48.722;9.332;2023-02-15T05:43:41;0.30;75.70
43320;DHT22;28914;48.722;9.332;2023-02-15T05:49:00;0.30;75.60
43320;DHT22;28914;48.722;9.332;2023-02-15T05:54:19;0.30;75.60
43320;DHT22;28914;48.722;9.332;2023-02-15T05:59:39;0.30;75.60
43320;DHT22;28914;48.722;9.332;2023-02-15T06:04:58;0.20;75.40
43320;DHT22;28914;48.722;9.332;2023-02-15T06:10:17;0.20;75.50
43320;DHT22;28914;48.722;9.332;2023-02-15T06:15:36;0.20;75.70
43320;DHT22;28914;48.722;9.332;2023-02-15T06:20:56;0.20;75.70
43320;DHT22;28914;48.722;9.332;2023-02-15T06:26:15;0.20;75.90
43320;DHT22;28914;48.722;9.332;2023-02-15T06:31:34;0.10;75.80
43320;DHT22;28914;48.722;9.332;2023-02-15T06:36:53;0.20;75.80
43320;DHT22;28914;48.722;9.332;2023-02-15T06:42:13;0.20;76.00
43320;DHT22;28914;48.722;9.332;2023-02-15T06:47:32;0.10;76.60
43320;DHT22;28914;48.722;9.332;2023-02-15T06:52:56;0.10;75.90
43320;DHT22;28914;48.722;9.332;2023-02-15T06:58:15;0.10;76.10
43320;DHT22;28914;48.722;9.332;2023-02-15T07:03:35;0.20;76.30
43320;DHT22;28914;48.722;9.332;2023-02-15T07:08:54;0.20;76.60
43320;DHT22;28914;48.722;9.332;2023-02-15T07:14:14;0.30;76.70
43320;DHT22;28914;48.722;9.332;2023-02-15T07:19:33;0.40;77.80
43320;DHT22;28914;48.722;9.332;2023-02-15T07:24:53;0.50;77.80
43320;DHT22;28914;48.722;9.332;2023-02-15T07:30:15;0.60;78.00
43320;DHT22;28914;48.722;9.332;2023-02-15T07:35:35;0.80;78.70
43320;DHT22;28914;48.722;9.332;2023-02-15T07:41:01;0.90;78.80
43320;DHT22;28914;48.722;9.332;2023-02-15T07:46:21;1.10;79.20
43320;DHT22;28914;48.722;9.332;2023-02-15T07:51:40;1.30;79.70
43320;DHT22;28914;48.722;9.332;2023-02-15T07:57:01;1.50;79.80
43320;DHT22;28914;48.722;9.332;2023-02-15T08:02:21;1.70;79.80
43320;DHT22;28914;48.722;9.332;2023-02-15T08:07:40;2.00;79.80
43320;DHT22;28914;48.722;9.332;2023-02-15T08:12:59;2.20;79.70
43320;DHT22;28914;48.722;9.332;2023-02-15T08:18:18;2.40;79.70
43320;DHT22;28914;48.722;9.332;2023-02-15T08:23:37;2.70;79.60
43320;DHT22;28914;48.722;9.332;2023-02-15T08:28:57;2.90;79.30
43320;DHT22;28914;48.722;9.332;2023-02-15T08:34:19;3.20;79.00
43320;DHT22;28914;48.722;9.332;2023-02-15T08:39:38;3.40;78.60
43320;DHT22;28914;48.722;9.332;2023-02-15T08:44:57;3.60;78.20
43320;DHT22;28914;48.722;9.332;2023-02-15T08:50:17;3.90;78.00
43320;DHT22;28914;48.722;9.332;2023-02-15T08:55:36;4.20;77.80
43320;DHT22;28914;48.722;9.332;2023-02-15T09:00:55;4.40;77.50
43320;DHT22;28914;48.722;9.332;2023-02-15T09:06:16;4.70;77.50
43320;DHT22;28914;48.722;9.332;2023-02-15T09:11:38;5.00;77.20
43320;DHT22;28914;48.722;9.332;2023-02-15T09:16:57;5.30;76.80
43320;DHT22;28914;48.722;9.332;2023-02-15T09:22:16;5.60;76.60
43320;DHT22;28914;48.722;9.332;2023-02-15T09:27:36;6.00;76.20
43320;DHT22;28914;48.722;9.332;2023-02-15T09:32:55;6.30;75.80
43320;DHT22;28914;48.722;9.332;2023-02-15T09:38:15;6.60;75.50
43320;DHT22;28914;48.722;9.332;2023-02-15T10:01:11;15.20;76.20
43320;DHT22;28914;48.722;9.332;2023-02-15T10:18:15;23.20;55.10
43320;DHT22;28914;48.722;9.332;2023-02-15T10:34:52;27.50;44.30
43320;DHT22;28914;48.722;9.332;2023-02-15T10:40:50;28.30;41.30
43320;DHT22;28914;48.722;9.332;2023-02-15T10:57:24;31.00;37.00
43320;DHT22;28914;48.722;9.332;2023-02-15T11:03:11;31.70;37.20
43320;DHT22;28914;48.722;9.332;2023-02-15T11:08:40;32.30;35.80
43320;DHT22;28914;48.722;9.332;2023-02-15T11:14:14;32.70;35.50
43320;DHT22;28914;48.722;9.332;2023-02-15T11:19:42;33.10;33.30
43320;DHT22;28914;48.722;9.332;2023-02-15T11:25:17;33.30;33.90
43320;DHT22;28914;48.722;9.332;2023-02-15T11:30:56;33.40;31.90
43320;DHT22;28914;48.722;9.332;2023-02-15T11:36:24;33.10;31.80
43320;DHT22;28914;48.722;9.332;2023-02-15T11:41:55;32.70;30.00
43320;DHT22;28914;48.722;9.332;2023-02-15T11:47:16;32.40;31.20
43320;DHT22;28914;48.722;9.332;2023-02-15T11:52:36;32.00;32.30
43320;DHT22;28914;48.722;9.332;2023-02-15T12:03:52;29.90;30.80
43320;DHT22;28914;48.722;9.332;2023-02-15T12:09:33;28.50;30.80
43320;DHT22;28914;48.722;9.332;2023-02-15T12:14:58;27.50;32.80
43320;DHT22;28914;48.722;9.332;2023-02-15T12:25:43;25.60;33.50
43320;DHT22;28914;48.722;9.332;2023-02-15T12:31:25;24.40;34.50
43320;DHT22;28914;48.722;9.332;2023-02-15T12:36:48;23.40;35.40
43320;DHT22;28914;48.722;9.332;2023-02-15T12:42:16;22.60;37.00
43320;DHT22;28914;48.722;9.332;2023-02-15T12:47:36;21.80;37.50
43320;DHT22;28914;48.722;9.332;2023-02-15T12:53:19;20.90;37.90
43320;DHT22;28914;48.722;9.332;2023-02-15T12:58:40;19.90;39.00
43320;DHT22;28914;48.722;9.332;2023-02-15T13:04:21;18.90;39.90
43320;DHT22;28914;48.722;9.332;2023-02-15T13:09:40;18.00;42.30
43320;DHT22;28914;48.722;9.332;2023-02-15T13:15:00;17.30;42.50
43320;DHT22;28914;48.722;9.332;2023-02-15T13:20:22;16.70;43.40
43320;DHT22;28914;48.722;9.332;2023-02-15T13:25:45;16.30;44.70
43320;DHT22;28914;48.722;9.332;2023-02-15T13:31:19;15.90;46.20
43320;DHT22;28914;48.722;9.332;2023-02-15T13:42:31;15.40;46.80
43320;DHT22;28914;48.722;9.332;2023-02-15T14:10:34;14.80;49.20
43320;DHT22;28914;48.722;9.332;2023-02-15T14:16:01;14.70;49.90
43320;DHT22;28914;48.722;9.332;2023-02-15T14:21:30;14.60;49.90
43320;DHT22;28914;48.722;9.332;2023-02-15T14:32:41;14.50;51.20
43320;DHT22;28914;48.722;9.332;2023-02-15T14:38:21;14.40;51.20
43320;DHT22;28914;48.722;9.332;2023-02-15T14:44:12;14.30;51.90
43320;DHT22;28914;48.722;9.332;2023-02-15T14:49:37;14.10;52.30
43320;DHT22;28914;48.722;9.332;2023-02-15T14:54:57;13.90;52.40
43320;DHT22;28914;48.722;9.332;2023-02-15T15:00:36;13.70;52.60
43320;DHT22;28914;48.722;9.332;2023-02-15T15:05:58;13.40;53.20
43320;DHT22;28914;48.722;9.332;2023-02-15T15:16:49;12.80;53.80
43320;DHT22;28914;48.722;9.332;2023-02-15T15:22:20;12.50;54.10
43320;DHT22;28914;48.722;9.332;2023-02-15T15:27:51;12.20;54.90
43320;DHT22;28914;48.722;9.332;2023-02-15T15:33:30;12.00;55.10
43320;DHT22;28914;48.722;9.332;2023-02-15T15:39:04;11.70;55.60
43320;DHT22;28914;48.722;9.332;2023-02-15T15:50:21;11.30;56.20
43320;DHT22;28914;48.722;9.332;2023-02-15T15:55:40;11.10;56.20
43320;DHT22;28914;48.722;9.332;2023-02-15T16:01:10;10.90;56.30
43320;DHT22;28914;48.722;9.332;2023-02-15T16:06:35;10.70;56.70
43320;DHT22;28914;48.722;9.332;2023-02-15T16:11:59;10.50;57.20
43320;DHT22;28914;48.722;9.332;2023-02-15T16:17:23;10.40;57.20
43320;DHT22;28914;48.722;9.332;2023-02-15T16:22:43;10.20;57.40
43320;DHT22;28914;48.722;9.332;2023-02-15T16:28:12;10.00;57.60
43320;DHT22;28914;48.722;9.332;2023-02-15T16:33:38;9.80;57.90
43320;DHT22;28914;48.722;9.332;2023-02-15T16:44:19;9.50;58.20
43320;DHT22;28914;48.722;9.332;2023-02-15T16:49:46;9.30;58.40
43320;DHT22;28914;48.722;9.332;2023-02-15T16:55:06;9.10;58.70
43320;DHT22;28914;48.722;9.332;2023-02-15T17:00:30;8.90;58.80
43320;DHT22;28914;48.722;9.332;2023-02-15T17:05:53;8.70;59.10
43320;DHT22;28914;48.722;9.332;2023-02-15T17:11:22;8.60;59.40
43320;DHT22;28914;48.722;9.332;2023-02-15T17:16:53;8.40;59.40
43320;DHT22;28914;48.722;9.332;2023-02-15T17:22:24;8.20;59.70
43320;DHT22;28914;48.722;9.332;2023-02-15T17:27:43;8.00;60.10
43320;DHT22;28914;48.722;9.332;2023-02-15T17:33:04;7.90;60.10
43320;DHT22;28914;48.722;9.332;2023-02-15T17:38:58;7.70;60.40
43320;DHT22;28914;48.722;9.332;2023-02-15T17:44:18;7.50;60.80
43320;DHT22;28914;48.722;9.332;2023-02-15T17:49:37;7.40;60.80
43320;DHT22;28914;48.722;9.332;2023-02-15T17:54:56;7.30;61.10
43320;DHT22;28914;48.722;9.332;2023-02-15T18:00:44;7.10;61.50
43320;DHT22;28914;48.722;9.332;2023-02-15T18:06:23;7.00;61.70
43320;DHT22;28914;48.722;9.332;2023-02-15T18:12:03;6.90;61.70
43320;DHT22;28914;48.722;9.332;2023-02-15T18:17:38;6.80;62.00
43320;DHT22;28914;48.722;9.332;2023-02-15T18:22:58;6.60;62.30
43320;DHT22;28914;48.722;9.332;2023-02-15T18:28:17;6.50;62.30
43320;DHT22;28914;48.722;9.332;2023-02-15T18:33:48;6.40;62.60
43320;DHT22;28914;48.722;9.332;2023-02-15T18:44:46;6.20;63.40
43320;DHT22;28914;48.722;9.332;2023-02-15T18:50:06;6.10;63.20
43320;DHT22;28914;48.722;9.332;2023-02-15T18:55:26;6.00;63.70
43320;DHT22;28914;48.722;9.332;2023-02-15T19:00:46;5.90;64.50
43320;DHT22;28914;48.722;9.332;2023-02-15T19:06:10;5.90;65.20
43320;DHT22;28914;48.722;9.332;2023-02-15T19:11:29;5.80;66.00
43320;DHT22;28914;48.722;9.332;2023-02-15T19:16:49;5.70;65.50
43320;DHT22;28914;48.722;9.332;2023-02-15T19:22:13;5.70;65.50
43320;DHT22;28914;48.722;9.332;2023-02-15T19:27:34;5.60;65.40
43320;DHT22;28914;48.722;9.332;2023-02-15T19:32:54;5.50;65.30
43320;DHT22;28914;48.722;9.332;2023-02-15T19:38:23;5.40;65.50
43320;DHT22;28914;48.722;9.332;2023-02-15T19:43:45;5.40;65.80
43320;DHT22;28914;48.722;9.332;2023-02-15T19:49:10;5.30;65.60
43320;DHT22;28914;48.722;9.332;2023-02-15T19:54:33;5.20;65.90
43320;DHT22;28914;48.722;9.332;2023-02-15T19:59:52;5.20;66.20
43320;DHT22;28914;48.722;9.332;2023-02-15T20:05:12;5.10;66.10
43320;DHT22;28914;48.722;9.332;2023-02-15T20:10:31;5.00;66.20
43320;DHT22;28914;48.722;9.332;2023-02-15T20:15:51;4.90;66.40
43320;DHT22;28914;48.722;9.332;2023-02-15T20:21:13;4.80;66.80
43320;DHT22;28914;48.722;9.332;2023-02-15T20:26:33;4.80;67.00
43320;DHT22;28914;48.722;9.332;2023-02-15T20:31:53;4.80;67.00
43320;DHT22;28914;48.722;9.332;2023-02-15T20:37:22;4.70;67.00
43320;DHT22;28914;48.722;9.332;2023-02-15T20:42:41;4.60;67.30
43320;DHT22;28914;48.722;9.332;2023-02-15T20:48:01;4.50;67.20
43320;DHT22;28914;48.722;9.332;2023-02-15T20:53:20;4.50;67.30
43320;DHT22;28914;48.722;9.332;2023-02-15T20:58:39;4.40;67.50
43320;DHT22;28914;48.722;9.332;2023-02-15T21:03:59;4.40;67.70
43320;DHT22;28914;48.722;9.332;2023-02-15T21:09:19;4.30;67.70
43320;DHT22;28914;48.722;9.332;2023-02-15T21:14:38;4.30;68.50
43320;DHT22;28914;48.722;9.332;2023-02-15T21:19:57;4.30;68.60
43320;DHT22;28914;48.722;9.332;2023-02-15T21:25:33;4.20;68.50
43320;DHT22;28914;48.722;9.332;2023-02-15T21:30:54;4.10;69.00
43320;DHT22;28914;48.722;9.332;2023-02-15T21:36:17;4.10;68.70
43320;DHT22;28914;48.722;9.332;2023-02-15T21:41:37;4.00;68.70
43320;DHT22;28914;48.722;9.332;2023-02-15T21:47:21;4.00;68.70
43320;DHT22;28914;48.722;9.332;2023-02-15T21:53:01;3.90;68.90
43320;DHT22;28914;48.722;9.332;2023-02-15T21:58:23;3.90;69.00
43320;DHT22;28914;48.722;9.332;2023-02-15T22:03:44;3.90;69.20
43320;DHT22;28914;48.722;9.332;2023-02-15T22:09:18;3.80;69.40
43320;DHT22;28914;48.722;9.332;2023-02-15T22:14:39;3.70;69.80
43320;DHT22;28914;48.722;9.332;2023-02-15T22:19:59;3.70;70.00
43320;DHT22;28914;48.722;9.332;2023-02-15T22:25:21;3.60;70.30
43320;DHT22;28914;48.722;9.332;2023-02-15T22:30:42;3.60;70.10
43320;DHT22;28914;48.722;9.332;2023-02-15T22:36:02;3.60;70.30
43320;DHT22;28914;48.722;9.332;2023-02-15T22:41:28;3.50;70.10
43320;DHT22;28914;48.722;9.332;2023-02-15T22:46:47;3.50;70.10
43320;DHT22;28914;48.722;9.332;2023-02-15T22:52:12;3.40;70.00
43320;DHT22;28914;48.722;9.332;2023-02-15T22:57:31;3.40;70.20
43320;DHT22;28914;48.722;9.332;2023-02-15T23:02:52;3.30;70.30
43320;DHT22;28914;48.722;9.332;2023-02-15T23:08:11;3.30;70.50
43320;DHT22;28914;48.722;9.332;2023-02-15T23:13:32;3.20;70.40
43320;DHT22;28914;48.722;9.332;2023-02-15T23:18:51;3.20;70.60
43320;DHT22;28914;48.722;9.332;2023-02-15T23:29:36;3.10;71.20
43320;DHT22;28914;48.722;9.332;2023-02-15T23:34:55;3.10;73.10
43320;DHT22;28914;48.722;9.332;2023-02-15T23:40:16;3.00;74.00
43320;DHT22;28914;48.722;9.332;2023-02-15T23:45:54;3.00;74.50
43320;DHT22;28914;48.722;9.332;2023-02-15T23:51:13;2.90;73.70
43320;DHT22;28914;48.722;9.332;2023-02-15T23:56:33;2.90;73.20
